Time;durP1;ratioP1;P1;durP2;ratioP2;P2;SDS_P1;SDS_P2;PMS_P1;PMS_P2;Temp;Humidity;BMP_temperature;BMP_pressure;BME280_temperature;BME280_humidity;BME280_pressure;Samples;Min_cycle;Max_cycle;Signal;HPM_P1;HPM_P2
2023/06/07 00:00:20;;;;;;;7.00;3.60;;;;;;;14.37;83.74;102053.88;4974889;28;20722;-77
2023/06/07 00:02:46;;;;;;;7.82;4.68;;;;;;;14.39;83.10;102055.13;4969307;28;20509;-78
2023/06/07 00:05:14;;;;;;;8.32;4.18;;;;;;;14.34;83.19;102055.44;4990127;28;20034;-77
2023/06/07 00:07:41;;;;;;;11.48;4.30;;;;;;;14.34;83.36;102052.63;4973924;28;20480;-77
2023/06/07 00:10:06;;;;;;;8.68;4.03;;;;;;;14.36;83.44;102049.44;4975098;28;20434;-78
2023/06/07 00:12:32;;;;;;;6.32;4.10;;;;;;;14.35;83.24;102048.63;4979837;28;20100;-78
2023/06/07 00:15:00;;;;;;;9.57;3.90;;;;;;;14.35;83.11;102053.44;4958353;28;20062;-79
2023/06/07 00:17:27;;;;;;;6.10;4.22;;;;;;;14.36;83.31;102046.63;4973901;28;22142;-79
2023/06/07 00:19:53;;;;;;;10.65;4.32;;;;;;;14.30;83.66;102048.94;4971214;28;20030;-79
2023/06/07 00:22:18;;;;;;;6.88;4.38;;;;;;;14.22;84.02;102050.00;4979418;28;20054;-79
2023/06/07 00:24:44;;;;;;;7.47;4.00;;;;;;;14.09;84.84;102062.63;4980379;28;20034;-79
2023/06/07 00:27:09;;;;;;;7.55;3.92;;;;;;;14.01;85.04;102061.66;4976702;28;20050;-79
2023/06/07 00:29:34;;;;;;;9.80;4.13;;;;;;;13.70;87.48;102060.66;4983892;28;20077;-79
2023/06/07 00:32:02;;;;;;;6.35;4.53;;;;;;;14.03;85.17;102065.72;4986845;28;20076;-79
2023/06/07 00:34:27;;;;;;;8.68;4.00;;;;;;;14.15;83.57;102063.97;4980859;28;20487;-79
2023/06/07 00:36:52;;;;;;;8.35;3.80;;;;;;;13.93;85.66;102063.53;4990248;28;20057;-79
2023/06/07 00:39:18;;;;;;;5.97;4.32;;;;;;;13.91;85.03;102051.00;4981294;28;20022;-79
2023/06/07 00:41:43;;;;;;;6.80;4.15;;;;;;;14.08;83.89;102055.34;5000664;28;20050;-79
2023/06/07 00:44:11;;;;;;;10.02;4.50;;;;;;;13.92;85.01;102059.09;4981962;28;20117;-79
2023/06/07 00:46:36;;;;;;;9.43;4.72;;;;;;;14.08;84.37;102061.78;4985678;28;20499;-79
2023/06/07 00:49:01;;;;;;;8.60;4.72;;;;;;;13.99;83.92;102050.78;4981501;28;20739;-79
2023/06/07 00:51:29;;;;;;;12.18;4.28;;;;;;;13.94;84.38;102062.34;4978647;28;20034;-79
2023/06/07 00:53:58;;;;;;;9.55;4.65;;;;;;;13.92;84.62;102059.09;4981362;28;20129;-79
2023/06/07 00:56:24;;;;;;;9.95;5.05;;;;;;;13.86;85.26;102054.94;4976817;28;20438;-79
2023/06/07 00:58:50;;;;;;;6.15;3.97;;;;;;;13.77;85.39;102054.38;4978378;28;20351;-79
2023/06/07 01:01:17;;;;;;;6.45;4.32;;;;;;;13.87;85.04;102050.13;4973275;28;20570;-79
2023/06/07 01:03:44;;;;;;;7.32;4.00;;;;;;;13.84;85.01;102048.88;4976309;28;20037;-79
2023/06/07 01:06:10;;;;;;;10.02;4.53;;;;;;;13.74;85.45;102055.09;4976140;28;20116;-79
2023/06/07 01:08:37;;;;;;;7.97;5.00;;;;;;;13.73;85.43;102050.69;4974944;28;20030;-79
2023/06/07 01:11:04;;;;;;;7.70;4.10;;;;;;;13.69;85.62;102049.78;4977696;28;20030;-79
2023/06/07 01:13:30;;;;;;;5.85;4.25;;;;;;;13.71;85.08;102053.03;4976593;28;20034;-79
2023/06/07 01:15:56;;;;;;;7.20;3.58;;;;;;;13.78;84.50;102047.56;4978500;28;20508;-79
2023/06/07 01:18:25;;;;;;;9.48;4.70;;;;;;;13.66;85.78;102051.34;4986408;28;20034;-79
2023/06/07 01:20:55;;;;;;;8.70;4.40;;;;;;;13.54;86.45;102060.75;4984942;28;20434;-79
2023/06/07 01:23:32;;;;;;;16.42;5.60;;;;;;;13.60;86.17;102052.84;4983303;28;20340;-79
2023/06/07 01:25:59;;;;;;;7.45;4.50;;;;;;;13.70;85.73;102051.41;4967063;28;20544;-79
2023/06/07 01:28:26;;;;;;;6.43;4.50;;;;;;;13.54;88.07;102052.31;4975591;28;20034;-79
2023/06/07 01:30:53;;;;;;;10.27;4.63;;;;;;;13.52;86.50;102051.06;4983556;28;20031;-79
2023/06/07 01:33:19;;;;;;;8.13;5.05;;;;;;;13.44;87.44;102050.06;4978348;28;20042;-79
2023/06/07 01:35:46;;;;;;;7.47;4.53;;;;;;;13.36;87.65;102048.28;4984684;28;20081;-80
2023/06/07 01:38:14;;;;;;;8.85;4.20;;;;;;;13.11;89.30;102037.28;4982331;28;20026;-80
2023/06/07 01:40:42;;;;;;;8.15;4.93;;;;;;;13.32;87.98;102041.78;4985939;28;20025;-80
2023/06/07 01:43:08;;;;;;;10.38;5.72;;;;;;;13.16;88.86;102028.56;4999689;28;20483;-80
2023/06/07 01:45:34;;;;;;;8.25;4.82;;;;;;;13.41;87.07;102039.56;4971685;28;20037;-80
2023/06/07 01:48:00;;;;;;;10.77;4.40;;;;;;;13.32;87.35;102039.75;4975566;28;20046;-80
2023/06/07 01:50:26;;;;;;;7.93;5.20;;;;;;;13.28;87.94;102035.22;4976472;28;20085;-80
2023/06/07 01:52:51;;;;;;;9.77;4.80;;;;;;;13.54;86.05;102043.88;4977343;28;20034;-80
2023/06/07 01:55:17;;;;;;;8.68;4.55;;;;;;;13.21;88.37;102031.06;4982292;28;20042;-80
2023/06/07 01:58:00;;;;;;;8.45;4.95;;;;;;;13.34;87.30;102022.53;4981014;28;20117;-80
2023/06/07 02:00:28;;;;;;;;;;;;;;;13.38;87.21;102029.03;4973291;28;20109;-80
2023/06/07 02:02:56;;;;;;;8.85;4.28;;;;;;;13.28;87.59;102024.81;4976578;28;19983;-80
2023/06/07 02:05:28;;;;;;;7.38;4.53;;;;;;;13.29;87.56;102029.28;4993979;28;20029;-80
2023/06/07 02:07:55;;;;;;;13.52;4.90;;;;;;;13.38;86.93;102029.03;4982131;28;20069;-80
2023/06/07 02:10:24;;;;;;;11.38;5.40;;;;;;;13.41;86.62;102028.31;4980502;28;20494;-80
2023/06/07 02:12:52;;;;;;;8.40;4.70;;;;;;;13.31;87.57;102034.53;4975083;28;20073;-80
2023/06/07 02:15:18;;;;;;;10.15;4.50;;;;;;;13.31;87.57;102037.34;4980692;28;20035;-79
2023/06/07 02:17:57;;;;;;;8.52;4.93;;;;;;;13.18;88.49;102037.44;4982909;28;20026;-79
2023/06/07 02:20:25;;;;;;;12.65;5.50;;;;;;;13.28;87.50;102029.59;4974138;28;20246;-79
2023/06/07 02:22:51;;;;;;;9.38;4.47;;;;;;;13.25;87.87;102019.91;4977249;28;20042;-79
2023/06/07 02:25:16;;;;;;;10.75;5.82;;;;;;;13.26;87.76;102027.19;4976433;28;20049;-80
2023/06/07 02:27:42;;;;;;;9.77;4.93;;;;;;;13.15;88.26;102021.28;4983861;28;20042;-80
2023/06/07 02:30:08;;;;;;;9.48;5.50;;;;;;;12.89;91.71;102026.75;4977033;28;20026;-80
2023/06/07 02:32:33;;;;;;;15.43;6.68;;;;;;;12.87;91.07;102026.28;4979862;28;20030;-80
2023/06/07 02:34:59;;;;;;;10.48;4.70;;;;;;;13.00;89.60;102020.16;4982890;28;20498;-80
2023/06/07 02:37:24;;;;;;;9.25;5.22;;;;;;;13.23;88.14;102022.28;4985058;28;20034;-80
2023/06/07 02:39:50;;;;;;;13.60;6.15;;;;;;;13.03;89.22;102013.00;4988712;28;20420;-80
2023/06/07 02:42:15;;;;;;;12.43;4.85;;;;;;;13.16;88.69;102028.56;5001901;28;20443;-80
2023/06/07 02:44:40;;;;;;;8.13;5.07;;;;;;;13.12;88.73;102022.03;4990047;28;20030;-80
2023/06/07 02:47:06;;;;;;;8.38;4.63;;;;;;;12.97;90.55;102025.72;4982016;28;20034;-79
2023/06/07 02:49:31;;;;;;;12.07;4.97;;;;;;;12.84;90.95;102030.66;4983643;28;20042;-79
2023/06/07 02:51:56;;;;;;;9.63;4.38;;;;;;;13.02;90.51;102028.22;4984735;28;20481;-80
2023/06/07 02:54:22;;;;;;;6.15;4.85;;;;;;;13.10;88.85;102030.03;4981948;28;20062;-79
2023/06/07 02:56:47;;;;;;;9.40;5.45;;;;;;;12.92;91.33;102029.63;4978612;28;20084;-79
2023/06/07 02:59:12;;;;;;;11.88;5.13;;;;;;;13.05;89.64;102030.31;4983867;28;20029;-80
2023/06/07 03:01:38;;;;;;;16.42;5.40;;;;;;;13.09;89.87;102034.03;4976547;28;20026;-79
2023/06/07 03:04:04;;;;;;;6.53;4.25;;;;;;;12.98;90.14;102033.75;4973200;28;20045;-79
2023/06/07 03:06:29;;;;;;;8.70;4.75;;;;;;;13.00;90.67;102027.78;4976428;28;20065;-79
2023/06/07 03:08:58;;;;;;;8.80;4.68;;;;;;;13.06;90.17;102028.31;4964131;28;20157;-79
2023/06/07 03:11:23;;;;;;;11.85;5.82;;;;;;;12.83;92.38;102029.00;4975732;28;20058;-79
2023/06/07 03:13:49;;;;;;;13.63;4.97;;;;;;;13.12;89.97;102033.28;4977526;28;20053;-80
2023/06/07 03:16:14;;;;;;;10.77;5.25;;;;;;;13.04;90.73;102033.50;4978070;28;20026;-79
2023/06/07 03:18:40;;;;;;;11.98;5.95;;;;;;;12.90;91.80;102025.53;4981752;28;20077;-80
2023/06/07 03:21:06;;;;;;;12.73;6.53;;;;;;;12.82;92.50;102025.38;4983960;28;20030;-80
2023/06/07 03:23:31;;;;;;;12.00;5.55;;;;;;;12.86;91.76;102030.25;4981703;28;20108;-80
2023/06/07 03:25:58;;;;;;;14.40;6.70;;;;;;;12.88;91.85;102016.66;4980583;28;20650;-80
2023/06/07 03:28:24;;;;;;;9.25;6.18;;;;;;;12.85;91.64;102017.41;4973907;28;20111;-79
2023/06/07 03:30:49;;;;;;;10.65;5.43;;;;;;;12.79;91.97;102025.28;4974394;28;20034;-79
2023/06/07 03:33:14;;;;;;;11.55;6.28;;;;;;;12.80;92.40;102026.94;4982039;28;20116;-80
2023/06/07 03:35:41;;;;;;;10.23;6.20;;;;;;;12.85;92.71;102028.66;4984393;28;20160;-79
2023/06/07 03:38:07;;;;;;;11.60;6.47;;;;;;;12.58;96.45;102032.00;4982196;28;20482;-80
2023/06/07 03:40:32;;;;;;;11.18;5.03;;;;;;;12.68;93.37;102027.84;4993806;28;20032;-80
2023/06/07 03:42:59;;;;;;;10.27;4.93;;;;;;;12.88;92.04;102034.34;4978501;28;20034;-80
2023/06/07 03:45:24;;;;;;;11.10;5.32;;;;;;;12.90;92.09;102032.00;4982279;28;20038;-80
2023/06/07 03:47:50;;;;;;;13.32;5.72;;;;;;;12.67;94.09;102033.81;4979491;28;20046;-80
2023/06/07 03:50:15;;;;;;;17.67;6.82;;;;;;;12.35;97.03;102031.88;4979220;28;20441;-80
2023/06/07 03:52:40;;;;;;;10.15;5.65;;;;;;;12.28;97.29;102028.88;4984794;28;20196;-80
2023/06/07 03:55:07;;;;;;;13.40;6.53;;;;;;;12.30;96.86;102029.31;4976281;28;20057;-79
2023/06/07 03:57:32;;;;;;;13.45;6.55;;;;;;;12.49;96.26;102022.97;4982837;28;20454;-80
2023/06/07 03:59:58;;;;;;;10.50;5.68;;;;;;;12.68;93.91;102036.28;4978290;28;20034;-80
2023/06/07 04:02:23;;;;;;;21.73;6.53;;;;;;;12.31;97.81;102033.78;4977212;28;20036;-80
2023/06/07 04:04:49;;;;;;;14.32;5.45;;;;;;;12.57;95.18;102035.22;4973890;28;20419;-79
2023/06/07 04:07:16;;;;;;;17.25;6.65;;;;;;;12.52;96.04;102036.31;4977321;28;20041;-80
2023/06/07 04:09:41;;;;;;;15.70;5.43;;;;;;;12.44;95.94;102028.03;4976840;28;20023;-80
2023/06/07 04:12:07;;;;;;;12.30;5.90;;;;;;;12.39;97.96;102029.13;4978920;28;20041;-80
2023/06/07 04:14:33;;;;;;;12.73;6.82;;;;;;;12.55;98.00;102026.34;4959069;28;20050;-79
2023/06/07 04:16:59;;;;;;;9.90;5.30;;;;;;;12.82;93.71;102028.19;4963761;28;20030;-79
2023/06/07 04:19:25;;;;;;;10.50;5.15;;;;;;;13.02;92.12;102028.22;4975571;28;20849;-79
2023/06/07 04:21:50;;;;;;;14.65;5.13;;;;;;;12.97;93.48;102025.72;4976453;28;20129;-79
2023/06/07 04:24:16;;;;;;;13.43;6.35;;;;;;;12.57;96.26;102027.59;4988188;28;20113;-79
2023/06/07 04:26:41;;;;;;;11.13;5.38;;;;;;;12.77;93.94;102027.66;4982880;28;20062;-79
2023/06/07 04:29:07;;;;;;;14.88;5.30;;;;;;;12.77;96.39;102022.84;4991712;28;20049;-79
2023/06/07 04:31:34;;;;;;;11.20;5.95;;;;;;;13.00;93.80;102020.16;4984485;28;20121;-80
2023/06/07 04:34:01;;;;;;;8.15;5.28;;;;;;;13.07;92.29;102019.53;4981981;28;20494;-80
2023/06/07 04:36:29;;;;;;;9.65;5.30;;;;;;;13.08;93.13;102032.38;4982866;28;20031;-79
2023/06/07 04:39:02;;;;;;;12.88;5.95;;;;;;;12.41;98.16;102027.59;4982367;28;20034;-80
2023/06/07 04:41:32;;;;;;;23.63;6.25;;;;;;;12.66;96.72;102018.97;4980673;28;20038;-80
2023/06/07 04:44:01;;;;;;;10.90;5.82;;;;;;;12.99;96.83;102026.16;4979032;28;20491;-80
2023/06/07 04:46:27;;;;;;;11.15;4.38;;;;;;;13.08;94.30;102032.38;4970057;28;20026;-80
2023/06/07 04:48:53;;;;;;;16.30;5.03;;;;;;;13.03;94.18;102021.44;4973272;28;20136;-80
2023/06/07 04:51:20;;;;;;;14.88;5.88;;;;;;;13.11;95.76;102025.22;4969191;28;20125;-79
2023/06/07 04:53:46;;;;;;;13.23;5.93;;;;;;;13.16;92.15;102020.13;4981948;28;20565;-80
2023/06/07 04:56:12;;;;;;;9.88;5.97;;;;;;;13.22;93.22;102027.09;4975808;28;20054;-80
2023/06/07 04:58:41;;;;;;;16.63;6.32;;;;;;;13.19;96.03;102022.19;4975859;28;20026;-80
2023/06/07 05:01:10;;;;;;;13.95;5.93;;;;;;;13.25;93.91;102031.16;4978134;28;20026;-80
2023/06/07 05:03:38;;;;;;;12.60;5.07;;;;;;;13.47;90.43;102028.81;4982364;28;20394;-80
2023/06/07 05:06:04;;;;;;;15.35;5.25;;;;;;;13.06;94.97;102029.13;4973704;28;20035;-80
2023/06/07 05:08:30;;;;;;;18.52;6.13;;;;;;;13.21;95.77;102033.88;4977972;28;20541;-79
2023/06/07 05:10:55;;;;;;;10.23;5.28;;;;;;;13.18;94.51;102034.63;4972737;28;20378;-80
2023/06/07 05:13:21;;;;;;;13.80;5.63;;;;;;;13.32;94.52;102036.16;4998353;28;20069;-79
2023/06/07 05:15:50;;;;;;;11.75;5.65;;;;;;;12.87;99.70;102038.34;4980705;28;20034;-80
2023/06/07 05:18:18;;;;;;;12.32;4.90;;;;;;;13.18;97.82;102042.25;4975367;28;20092;-80
2023/06/07 05:20:43;;;;;;;12.80;6.28;;;;;;;12.73;100.00;102038.81;4988245;28;20026;-80
2023/06/07 05:23:09;;;;;;;14.23;5.35;;;;;;;12.93;99.02;102041.69;4986402;28;20049;-80
2023/06/07 05:25:34;;;;;;;10.23;4.97;;;;;;;13.17;95.65;102030.19;4976703;28;20524;-80
2023/06/07 05:28:00;;;;;;;13.25;5.38;;;;;;;12.97;100.00;102042.59;4981201;28;20120;-79
2023/06/07 05:30:25;;;;;;;15.25;5.47;;;;;;;13.17;95.87;102044.22;4983070;28;20041;-80
2023/06/07 05:32:51;;;;;;;13.02;4.95;;;;;;;13.10;97.71;102041.28;5004227;28;20062;-80
2023/06/07 05:35:17;;;;;;;7.35;4.75;;;;;;;13.22;95.83;102052.41;4967047;28;20088;-79
2023/06/07 05:37:42;;;;;;;11.82;5.10;;;;;;;12.72;100.00;102042.81;4980372;28;20351;-79
2023/06/07 05:40:08;;;;;;;9.60;4.28;;;;;;;13.08;98.83;102043.63;4980932;28;20049;-79
2023/06/07 05:42:38;;;;;;;11.32;5.25;;;;;;;13.30;95.67;102039.34;4983802;28;20026;-79
2023/06/07 05:45:07;;;;;;;11.23;5.70;;;;;;;13.29;98.61;102050.97;4980861;28;20517;-79
2023/06/07 05:47:32;;;;;;;13.85;5.15;;;;;;;13.35;98.42;102049.50;4982595;28;20478;-79
2023/06/07 05:49:58;;;;;;;17.25;7.18;;;;;;;13.20;98.02;102051.94;4982966;28;20035;-79
2023/06/07 05:52:23;;;;;;;14.45;5.72;;;;;;;12.93;100.00;102058.53;4979895;28;20034;-79
2023/06/07 05:54:50;;;;;;;18.67;5.57;;;;;;;13.01;98.24;102054.72;4978491;28;20034;-79
2023/06/07 05:57:16;;;;;;;7.22;4.78;;;;;;;13.48;94.44;102055.78;4975560;28;20046;-79
2023/06/07 05:59:41;;;;;;;6.20;3.92;;;;;;;13.44;98.56;102054.91;4979808;28;21090;-79
2023/06/07 06:02:07;;;;;;;13.57;5.50;;;;;;;13.33;95.57;102055.47;4980662;28;20093;-79
2023/06/07 06:04:32;;;;;;;13.50;4.68;;;;;;;13.43;98.10;102065.34;4979146;28;20313;-80
2023/06/07 06:06:58;;;;;;;15.85;4.90;;;;;;;13.53;97.31;102070.34;4973517;28;20349;-80
2023/06/07 06:09:23;;;;;;;11.77;4.70;;;;;;;13.67;92.98;102069.03;4976828;28;20018;-81
2023/06/07 06:11:49;;;;;;;16.27;4.65;;;;;;;13.60;98.84;102067.72;4979146;28;20045;-84
2023/06/07 06:14:15;;;;;;;9.13;5.00;;;;;;;13.70;97.60;102068.28;4979911;28;20602;-84
2023/06/07 06:16:41;;;;;;;11.45;3.88;;;;;;;13.40;98.34;102071.69;4975576;28;20043;-83
2023/06/07 06:19:06;;;;;;;9.77;4.93;;;;;;;13.15;100.00;102074.72;4975062;28;20026;-83
2023/06/07 06:21:31;;;;;;;10.93;4.45;;;;;;;13.16;99.36;102072.72;4977931;28;20133;-83
2023/06/07 06:23:57;;;;;;;16.90;4.50;;;;;;;13.38;98.13;102069.22;4977943;28;20105;-83
2023/06/07 06:26:22;;;;;;;12.70;3.72;;;;;;;13.49;96.25;102074.28;4976920;28;20450;-84
2023/06/07 06:28:48;;;;;;;9.82;4.78;;;;;;;13.35;97.58;102074.78;4988449;28;20040;-84
2023/06/07 06:31:13;;;;;;;15.82;4.85;;;;;;;13.53;97.81;102080.78;4978733;28;20034;-83
2023/06/07 06:33:38;;;;;;;11.00;4.53;;;;;;;13.21;98.93;102076.06;4975091;28;20034;-74
2023/06/07 06:36:04;;;;;;;10.27;4.07;;;;;;;13.35;99.85;102074.78;4970776;28;20036;-81
2023/06/07 06:38:29;;;;;;;16.13;4.50;;;;;;;13.74;98.42;102086.06;4979907;28;20081;-81
2023/06/07 06:40:55;;;;;;;10.35;4.05;;;;;;;13.90;94.87;102086.78;4987562;28;20111;-81
2023/06/07 06:43:20;;;;;;;13.13;4.38;;;;;;;13.70;99.59;102085.97;4977457;28;20067;-81
2023/06/07 06:45:46;;;;;;;18.27;4.80;;;;;;;13.75;99.04;102087.69;4977093;28;20070;-81
2023/06/07 06:48:12;;;;;;;15.77;4.78;;;;;;;13.80;98.27;102085.38;4978922;28;20030;-81
2023/06/07 06:50:37;;;;;;;11.52;5.20;;;;;;;13.81;96.83;102086.22;4995074;28;20034;-82
2023/06/07 06:53:03;;;;;;;14.60;3.97;;;;;;;13.95;95.43;102080.84;4975256;28;20886;-81
2023/06/07 06:55:29;;;;;;;7.97;4.13;;;;;;;13.99;94.81;102076.09;4972652;28;20462;-81
2023/06/07 06:57:55;;;;;;;15.60;5.07;;;;;;;13.86;98.25;102071.84;4974007;28;20027;-82
2023/06/07 07:00:20;;;;;;;10.70;4.85;;;;;;;13.91;97.84;102079.97;4970706;28;20069;-81
2023/06/07 07:02:46;;;;;;;11.90;5.00;;;;;;;13.78;97.66;102084.94;4977230;28;20038;-81
2023/06/07 07:05:11;;;;;;;10.70;4.28;;;;;;;14.02;94.55;102075.38;4975502;28;20053;-81
2023/06/07 07:07:37;;;;;;;16.17;5.95;;;;;;;13.83;99.01;102090.28;4970447;28;20644;-81
2023/06/07 07:10:04;;;;;;;14.27;6.05;;;;;;;13.52;100.00;102084.81;4978388;28;20026;-81
2023/06/07 07:12:29;;;;;;;11.85;5.55;;;;;;;13.69;99.05;102090.00;4976089;28;20238;-81
2023/06/07 07:14:54;;;;;;;11.60;4.95;;;;;;;13.76;99.94;102098.56;4990556;28;20054;-81
2023/06/07 07:17:20;;;;;;;8.68;4.93;;;;;;;13.93;97.92;102088.84;4976402;28;20030;-81
2023/06/07 07:19:46;;;;;;;10.55;4.97;;;;;;;14.18;98.00;102096.97;4979982;28;20030;-80
2023/06/07 07:22:12;;;;;;;16.02;5.80;;;;;;;14.07;98.62;102093.16;4983832;28;20552;-81
2023/06/07 07:24:38;;;;;;;15.40;5.38;;;;;;;14.15;96.82;102092.13;4973633;28;20475;-81
2023/06/07 07:27:03;;;;;;;13.27;5.65;;;;;;;14.08;96.90;102089.94;4981525;28;20482;-81
2023/06/07 07:29:29;;;;;;;10.63;4.65;;;;;;;13.92;97.22;102092.88;4982902;28;20026;-81
2023/06/07 07:31:54;;;;;;;9.82;5.45;;;;;;;14.05;96.79;102085.06;4980052;28;20065;-81
2023/06/07 07:34:20;;;;;;;9.27;5.05;;;;;;;14.21;94.94;102088.63;4981699;28;20479;-81
2023/06/07 07:36:45;;;;;;;12.70;5.85;;;;;;;14.34;95.39;102088.44;4977337;28;20034;-81
2023/06/07 07:39:11;;;;;;;13.85;5.00;;;;;;;14.76;91.70;102088.41;4973605;28;20092;-81
2023/06/07 07:41:40;;;;;;;11.57;5.55;;;;;;;14.69;94.64;102091.06;4976013;28;20026;-82
2023/06/07 07:44:05;;;;;;;18.80;6.20;;;;;;;14.68;95.48;102085.84;4972259;28;20042;-81
2023/06/07 07:46:31;;;;;;;11.20;5.68;;;;;;;14.90;94.88;102089.81;4972976;28;20033;-83
2023/06/07 07:48:56;;;;;;;9.82;5.32;;;;;;;14.84;93.87;102087.31;4970645;28;20536;-77
2023/06/07 07:51:22;;;;;;;15.18;5.90;;;;;;;14.79;92.70;102086.81;4977389;28;20038;-84
2023/06/07 07:53:47;;;;;;;10.30;5.45;;;;;;;15.10;89.90;102091.34;4989749;28;20041;-84
2023/06/07 07:56:13;;;;;;;14.23;6.45;;;;;;;15.06;92.36;102096.13;4983017;28;20471;-84
2023/06/07 07:58:38;;;;;;;17.05;5.97;;;;;;;15.04;91.67;102101.31;4983426;28;20554;-84
2023/06/07 08:01:05;;;;;;;14.73;5.53;;;;;;;14.80;91.95;102100.53;4976822;28;20026;-84
2023/06/07 08:03:30;;;;;;;14.30;5.25;;;;;;;14.97;91.88;102102.03;4976953;28;20479;-84
2023/06/07 08:05:56;;;;;;;10.50;4.30;;;;;;;15.13;89.91;102093.38;4977567;28;20069;-83
2023/06/07 08:08:21;;;;;;;12.32;5.45;;;;;;;15.33;88.89;102098.94;4977277;28;20039;-83
2023/06/07 08:10:47;;;;;;;12.20;5.03;;;;;;;15.25;90.11;102096.00;4977504;28;20151;-84
2023/06/07 08:13:14;;;;;;;12.95;6.25;;;;;;;15.19;91.21;102093.88;4980726;28;20534;-83
2023/06/07 08:15:40;;;;;;;12.15;6.88;;;;;;;15.15;91.12;102091.00;4976178;28;20034;-84
2023/06/07 08:18:06;;;;;;;13.32;5.97;;;;;;;15.49;90.15;102098.72;4974927;28;20049;-84
2023/06/07 08:20:31;;;;;;;18.05;5.72;;;;;;;15.61;87.79;102102.13;4977501;28;21667;-85
2023/06/07 08:22:56;;;;;;;13.70;5.85;;;;;;;15.76;87.69;102085.41;4983985;28;20042;-84
2023/06/07 08:25:22;;;;;;;9.27;4.40;;;;;;;15.77;86.59;102090.69;5002362;28;20040;-84
2023/06/07 08:27:48;;;;;;;13.95;5.22;;;;;;;16.11;86.59;102081.38;4992276;28;20034;-84
2023/06/07 08:30:14;;;;;;;12.65;4.15;;;;;;;15.91;85.61;102080.75;4985241;28;20131;-84
2023/06/07 08:32:40;;;;;;;10.18;5.20;;;;;;;15.81;87.06;102088.72;4979809;28;20034;-84
2023/06/07 08:35:07;;;;;;;8.15;4.65;;;;;;;15.95;87.79;102082.41;4986770;28;20615;-84
2023/06/07 08:37:33;;;;;;;12.70;5.15;;;;;;;15.87;87.02;102083.50;4977995;28;20058;-84
2023/06/07 08:39:58;;;;;;;10.02;4.55;;;;;;;15.96;86.38;102069.09;4982839;28;20014;-84
2023/06/07 08:42:25;;;;;;;8.13;5.13;;;;;;;16.00;86.72;102078.41;4980744;28;20483;-84
2023/06/07 08:44:50;;;;;;;11.93;4.63;;;;;;;16.19;85.70;102075.41;4979948;28;20030;-85
2023/06/07 08:47:17;;;;;;;7.75;4.35;;;;;;;16.39;85.31;102084.47;5002188;28;20379;-84
2023/06/07 08:49:44;;;;;;;8.90;5.13;;;;;;;16.67;84.80;102080.28;4978580;28;20402;-85
2023/06/07 08:52:10;;;;;;;12.13;5.13;;;;;;;16.64;85.04;102086.72;4980736;28;20038;-84
2023/06/07 08:54:41;;;;;;;6.90;4.38;;;;;;;16.66;83.44;102087.16;4984170;28;20533;-87
2023/06/07 08:57:08;;;;;;;12.80;3.90;;;;;;;16.91;83.35;102069.59;4974273;28;20367;-85
2023/06/07 08:59:34;;;;;;;5.78;3.97;;;;;;;17.05;84.42;102076.19;4978310;28;20126;-85
2023/06/07 09:01:59;;;;;;;13.40;4.72;;;;;;;16.79;83.74;102082.81;4994462;28;20104;-86
2023/06/07 09:04:26;;;;;;;7.82;4.25;;;;;;;16.89;83.04;102083.31;4975559;28;20095;-86
2023/06/07 09:06:51;;;;;;;8.13;4.10;;;;;;;17.31;81.76;102070.66;4988259;28;20427;-86
2023/06/07 09:09:17;;;;;;;10.70;4.57;;;;;;;17.30;80.52;102072.69;4974693;28;20053;-86
2023/06/07 09:11:42;;;;;;;8.73;4.22;;;;;;;17.46;81.47;102073.19;4986941;28;20110;-85
2023/06/07 09:14:11;;;;;;;12.27;4.68;;;;;;;17.05;81.38;102069.69;4980009;28;20034;-86
2023/06/07 09:16:56;;;;;;;11.98;4.72;;;;;;;17.36;80.83;102073.13;4983166;28;20089;-87
2023/06/07 09:19:42;;;;;;;9.82;4.10;;;;;;;17.70;80.86;102075.72;4979984;28;20031;-87
2023/06/07 09:22:13;;;;;;;8.07;5.20;;;;;;;17.64;79.32;102075.28;4978195;28;20080;-87
2023/06/07 09:24:40;;;;;;;11.77;4.30;;;;;;;17.97;79.17;102074.22;4976705;28;20037;-86
2023/06/07 09:27:06;;;;;;;12.45;4.75;;;;;;;17.87;77.21;102070.13;4981933;28;20030;-87
2023/06/07 09:29:39;;;;;;;8.38;4.35;;;;;;;17.96;77.40;102071.78;4981474;28;20101;-87
2023/06/07 09:32:21;;;;;;;8.77;4.20;;;;;;;17.89;78.31;102066.91;4985318;28;20178;-87
2023/06/07 09:34:48;;;;;;;7.72;4.18;;;;;;;17.91;79.85;102070.16;4980337;28;20034;-87
2023/06/07 09:37:16;;;;;;;10.98;5.32;;;;;;;17.77;79.04;102072.88;4988031;28;20042;-86
2023/06/07 09:39:42;;;;;;;12.13;4.40;;;;;;;18.26;78.48;102060.91;4970937;28;20034;-86
2023/06/07 09:42:17;;;;;;;10.27;4.32;;;;;;;18.33;78.70;102067.81;4980141;28;20042;-87
2023/06/07 09:44:43;;;;;;;7.47;4.05;;;;;;;18.26;76.35;102057.28;4994478;28;20034;-87
2023/06/07 09:47:23;;;;;;;13.85;7.53;;;;;;;18.23;76.24;102058.06;4984503;28;20036;-86
2023/06/07 09:49:54;;;;;;;10.00;3.70;;;;;;;18.23;78.33;102058.88;4977044;28;20435;-86
2023/06/07 09:52:20;;;;;;;8.05;4.40;;;;;;;18.75;76.48;102052.84;4973215;28;20033;-88
2023/06/07 09:54:45;;;;;;;9.23;4.30;;;;;;;18.49;75.22;102052.03;4981767;28;20031;-88
2023/06/07 09:57:27;;;;;;;14.18;4.97;;;;;;;18.62;73.55;102045.97;4985446;28;20038;-87
2023/06/07 10:00:08;;;;;;;9.57;5.70;;;;;;;18.87;74.34;102051.66;4983553;28;20030;-87
2023/06/07 10:02:34;;;;;;;11.43;4.47;;;;;;;18.73;73.85;102058.09;4981044;28;20116;-88
2023/06/07 10:05:00;;;;;;;11.18;5.40;;;;;;;18.49;77.49;102043.53;4977611;28;20046;-87
2023/06/07 10:07:43;;;;;;;9.15;4.68;;;;;;;18.78;76.29;102051.19;4996695;28;20022;-88
2023/06/07 10:10:12;;;;;;;14.00;5.18;;;;;;;18.75;73.99;102041.50;4977906;28;20026;-87
2023/06/07 10:12:40;;;;;;;7.35;4.13;;;;;;;19.35;74.65;102050.31;4982601;28;20030;-87
2023/06/07 10:15:11;;;;;;;11.35;5.15;;;;;;;19.44;71.71;102045.03;4977354;28;20050;-87
2023/06/07 10:17:42;;;;;;;9.98;4.80;;;;;;;19.38;72.24;102043.81;4980163;28;20038;-88
2023/06/07 10:20:12;;;;;;;9.00;4.78;;;;;;;19.63;71.77;102041.69;4980783;28;20080;-87
2023/06/07 10:22:41;;;;;;;10.25;4.20;;;;;;;19.39;73.57;102043.38;4977484;28;20101;-87
2023/06/07 10:25:22;;;;;;;10.40;4.22;;;;;;;19.62;73.06;102042.91;4987735;28;20439;-86
2023/06/07 10:28:19;;;;;;;11.40;5.05;;;;;;;20.06;73.11;102040.66;4990629;28;20030;-87
2023/06/07 10:30:55;;;;;;;14.23;3.97;;;;;;;20.14;72.59;102041.44;4978076;28;20042;-88
2023/06/07 10:33:25;;;;;;;10.18;4.47;;;;;;;20.97;67.34;102048.06;4987404;28;20078;-88
2023/06/07 10:35:51;;;;;;;12.13;4.70;;;;;;;20.49;67.98;102046.84;4985587;28;20034;-88
2023/06/07 10:38:16;;;;;;;8.38;4.72;;;;;;;20.10;68.69;102042.25;5014284;28;20056;-88
2023/06/07 10:40:42;;;;;;;5.53;3.35;;;;;;;20.75;74.05;102036.09;4982395;28;20114;-89
2023/06/07 10:43:08;;;;;;;11.55;5.35;;;;;;;20.36;67.57;102042.88;5002159;28;20029;-88
2023/06/07 10:45:33;;;;;;;11.18;5.50;;;;;;;20.82;67.08;102036.00;4987125;28;20445;-88
2023/06/07 10:48:32;;;;;;;6.32;3.90;;;;;;;21.20;64.79;102038.06;4980500;28;20037;-88
2023/06/07 10:50:58;;;;;;;9.50;4.03;;;;;;;20.92;67.53;102035.09;4983308;28;20038;-88
2023/06/07 10:53:24;;;;;;;7.18;4.80;;;;;;;20.96;66.12;102035.06;4980908;28;20453;-88
2023/06/07 10:55:49;;;;;;;7.93;4.78;;;;;;;20.74;66.15;102033.66;4991417;28;20026;-87
2023/06/07 10:58:31;;;;;;;11.38;4.93;;;;;;;20.89;65.77;102035.13;5003261;28;20033;-88
2023/06/07 11:01:26;;;;;;;7.47;3.95;;;;;;;20.94;64.48;102022.50;4984638;28;20474;-89
2023/06/07 11:03:53;;;;;;;9.18;4.10;;;;;;;21.44;64.00;102024.78;5000068;28;20034;-89
2023/06/07 11:06:18;;;;;;;5.82;3.78;;;;;;;21.56;63.94;102032.78;4984996;28;20065;-88
2023/06/07 11:08:44;;;;;;;10.43;5.10;;;;;;;21.53;63.04;102022.25;4994140;28;20066;-88
2023/06/07 11:11:40;;;;;;;5.82;3.28;;;;;;;21.38;64.72;102029.31;4977288;28;20049;-88
2023/06/07 11:14:05;;;;;;;7.25;4.00;;;;;;;21.98;62.74;102030.56;5008169;28;20057;-87
2023/06/07 11:16:31;;;;;;;8.27;4.38;;;;;;;21.40;63.83;102019.13;4969161;28;20041;-86
2023/06/07 11:18:57;;;;;;;10.10;4.38;;;;;;;21.67;64.44;102016.38;4992343;28;20487;-86